createdAt,value
2022-10-21T00:00:37.400Z,14.00
2022-10-21T00:03:04.488Z,13.90
2022-10-21T00:05:31.599Z,13.90
2022-10-21T00:07:58.540Z,13.90
2022-10-21T00:10:25.448Z,13.80
2022-10-21T00:12:52.304Z,13.80
2022-10-21T00:15:19.160Z,13.70
2022-10-21T00:17:46.038Z,13.80
2022-10-21T00:20:13.291Z,13.80
2022-10-21T00:22:40.863Z,13.80
2022-10-21T00:25:08.765Z,13.80
2022-10-21T00:27:36.454Z,13.80
2022-10-21T00:30:07.046Z,13.80
2022-10-21T00:32:34.453Z,13.80
2022-10-21T00:35:01.264Z,13.70
2022-10-21T00:37:30.945Z,13.60
2022-10-21T00:39:58.262Z,13.60
2022-10-21T00:42:33.333Z,13.60
2022-10-21T00:45:14.990Z,13.50
2022-10-21T00:50:27.604Z,13.30
2022-10-21T00:52:56.597Z,13.20
2022-10-21T00:55:25.902Z,13.10
2022-10-21T00:57:53.379Z,13.00
2022-10-21T01:00:20.385Z,13.00
2022-10-21T01:02:47.326Z,12.90
2022-10-21T01:05:16.093Z,12.80
2022-10-21T01:07:43.095Z,12.90
2022-10-21T01:10:10.307Z,13.00
2022-10-21T01:13:09.931Z,12.90
2022-10-21T01:16:09.179Z,13.00
2022-10-21T01:19:03.409Z,12.90
2022-10-21T01:21:44.029Z,12.90
2022-10-21T01:24:32.447Z,13.10
2022-10-21T01:27:23.909Z,13.00
2022-10-21T01:30:09.348Z,12.90
2022-10-21T01:32:56.556Z,12.90
2022-10-21T01:35:47.361Z,12.70
2022-10-21T01:38:43.177Z,12.60
2022-10-21T01:41:13.379Z,12.50
2022-10-21T01:43:54.262Z,12.40
2022-10-21T01:49:30.839Z,12.20
2022-10-21T01:51:59.343Z,12.20
2022-10-21T01:54:35.312Z,12.00
2022-10-21T01:57:03.590Z,12.00
2022-10-21T01:59:32.620Z,11.90
2022-10-21T02:02:04.510Z,11.90
2022-10-21T02:04:33.420Z,12.00
2022-10-21T02:07:00.280Z,12.00
2022-10-21T02:09:27.591Z,11.90
2022-10-21T02:11:58.391Z,11.90
2022-10-21T02:17:07.941Z,11.80
2022-10-21T02:19:34.695Z,11.80
2022-10-21T02:22:03.169Z,11.90
2022-10-21T02:24:46.103Z,12.10
2022-10-21T02:27:12.993Z,12.30
2022-10-21T02:29:42.909Z,12.40
2022-10-21T02:32:28.308Z,12.20
2022-10-21T02:35:29.201Z,12.00
2022-10-21T02:38:22.481Z,11.90
2022-10-21T02:41:02.643Z,11.90
2022-10-21T02:43:36.882Z,11.90
2022-10-21T02:46:10.055Z,11.90
2022-10-21T02:48:38.571Z,11.80
2022-10-21T02:51:07.502Z,11.80
2022-10-21T02:53:35.151Z,11.70
2022-10-21T02:56:02.337Z,11.70
2022-10-21T02:58:29.430Z,11.70
2022-10-21T03:00:56.808Z,11.70
2022-10-21T03:03:23.599Z,11.70
2022-10-21T03:05:50.578Z,11.70
2022-10-21T03:08:17.398Z,11.80
2022-10-21T03:10:46.117Z,11.80
2022-10-21T03:13:14.789Z,11.80
2022-10-21T03:15:41.539Z,11.70
2022-10-21T03:18:08.336Z,11.70
2022-10-21T03:20:35.278Z,11.70
2022-10-21T03:23:02.122Z,11.70
2022-10-21T03:25:31.730Z,11.70
2022-10-21T03:28:02.007Z,11.60
2022-10-21T03:30:28.849Z,11.60
2022-10-21T03:32:55.574Z,11.60
2022-10-21T03:35:22.486Z,11.60
2022-10-21T03:37:49.273Z,11.50
2022-10-21T03:40:16.104Z,11.50
2022-10-21T03:42:42.909Z,11.40
2022-10-21T03:45:10.482Z,11.40
2022-10-21T03:47:37.706Z,11.30
2022-10-21T03:50:06.512Z,11.40
2022-10-21T03:52:35.911Z,11.30
2022-10-21T03:55:02.912Z,11.30
2022-10-21T03:57:29.663Z,11.30
2022-10-21T03:59:56.413Z,11.30
2022-10-21T04:02:23.227Z,11.30
2022-10-21T04:04:50.044Z,11.30
2022-10-21T04:07:16.782Z,11.30
2022-10-21T04:09:43.549Z,11.40
2022-10-21T04:12:11.060Z,11.40
2022-10-21T04:14:39.074Z,11.40
2022-10-21T04:17:07.879Z,11.40
2022-10-21T04:19:34.947Z,11.50
2022-10-21T04:22:01.688Z,11.40
2022-10-21T04:24:28.599Z,11.40
2022-10-21T04:26:55.408Z,11.40
2022-10-21T04:29:22.203Z,11.50
2022-10-21T04:31:48.983Z,11.60
2022-10-21T04:34:15.841Z,11.60
2022-10-21T04:36:42.619Z,11.70
2022-10-21T04:39:09.414Z,11.70
2022-10-21T04:41:36.423Z,11.80
2022-10-21T04:44:03.977Z,11.80
2022-10-21T04:46:36.887Z,11.80
2022-10-21T04:49:03.655Z,11.80
2022-10-21T04:54:17.235Z,11.80
2022-10-21T04:56:44.014Z,11.80
2022-10-21T04:59:11.073Z,11.80
2022-10-21T05:01:37.853Z,11.80
2022-10-21T05:04:04.689Z,11.70
2022-10-21T05:06:31.491Z,11.70
2022-10-21T05:08:58.316Z,11.70
2022-10-21T05:11:25.224Z,11.70
2022-10-21T05:13:51.976Z,11.60
2022-10-21T05:16:18.804Z,11.50
2022-10-21T05:18:45.566Z,11.50
2022-10-21T05:21:12.808Z,11.50
2022-10-21T05:23:39.599Z,11.50
2022-10-21T05:26:06.342Z,11.40
2022-10-21T05:28:33.329Z,11.30
2022-10-21T05:31:00.108Z,11.30
2022-10-21T05:33:26.947Z,11.30
2022-10-21T05:36:01.881Z,11.40
2022-10-21T05:38:29.576Z,11.50
2022-10-21T05:40:56.450Z,11.60
2022-10-21T05:43:24.282Z,11.60
2022-10-21T05:45:51.037Z,11.70
2022-10-21T05:48:18.356Z,11.70
2022-10-21T05:50:46.782Z,11.70
2022-10-21T05:53:14.507Z,11.80
2022-10-21T05:55:41.342Z,12.00
2022-10-21T05:58:08.116Z,11.90
2022-10-21T06:00:35.345Z,11.80
2022-10-21T06:03:02.207Z,11.80
2022-10-21T06:05:28.992Z,11.80
2022-10-21T06:07:55.742Z,11.90
2022-10-21T06:10:26.705Z,12.00
2022-10-21T06:12:55.882Z,12.10
2022-10-21T06:15:22.682Z,12.20
2022-10-21T06:17:49.430Z,12.30
2022-10-21T06:20:16.430Z,12.30
2022-10-21T06:22:43.213Z,12.40
2022-10-21T06:25:10.125Z,12.50
2022-10-21T06:27:37.348Z,12.60
2022-10-21T06:30:05.807Z,12.60
2022-10-21T06:32:32.960Z,12.60
2022-10-21T06:34:59.723Z,12.70
2022-10-21T06:37:26.498Z,12.80
2022-10-21T06:39:53.257Z,12.80
2022-10-21T06:42:20.478Z,12.80
2022-10-21T06:44:47.753Z,12.90
2022-10-21T06:47:14.697Z,12.90
2022-10-21T06:49:41.512Z,13.00
2022-10-21T06:52:08.495Z,13.00
2022-10-21T06:54:35.442Z,13.00
2022-10-21T06:57:03.219Z,13.10
2022-10-21T06:59:30.555Z,13.10
2022-10-21T07:02:01.120Z,13.20
2022-10-21T07:04:28.927Z,13.20
2022-10-21T07:06:55.699Z,13.20
2022-10-21T07:09:22.610Z,13.10
2022-10-21T07:11:49.382Z,13.10
2022-10-21T07:14:16.146Z,13.20
2022-10-21T07:16:42.962Z,13.20
2022-10-21T07:19:10.868Z,13.20
2022-10-21T07:21:37.786Z,13.20
2022-10-21T07:24:04.722Z,13.20
2022-10-21T07:26:34.254Z,13.20
2022-10-21T07:29:01.397Z,13.20
2022-10-21T07:31:31.650Z,13.30
2022-10-21T07:36:52.759Z,13.30
2022-10-21T07:39:23.745Z,13.30
2022-10-21T07:41:53.432Z,13.30
2022-10-21T07:44:22.827Z,13.30
2022-10-21T07:46:50.928Z,13.30
2022-10-21T07:49:19.271Z,13.30
2022-10-21T07:51:46.491Z,13.40
2022-10-21T07:54:14.426Z,13.40
2022-10-21T07:56:50.171Z,13.50
2022-10-21T07:59:18.887Z,13.50
2022-10-21T08:04:34.518Z,13.60
2022-10-21T08:07:01.406Z,13.70
2022-10-21T08:09:28.271Z,13.70
2022-10-21T08:11:55.541Z,13.80
2022-10-21T08:14:22.443Z,13.80
2022-10-21T08:16:53.952Z,13.90
2022-10-21T08:19:25.341Z,13.90
2022-10-21T08:21:52.135Z,14.00
2022-10-21T08:24:19.010Z,13.90
2022-10-21T08:26:45.807Z,13.90
2022-10-21T08:29:12.546Z,13.90
2022-10-21T08:31:39.502Z,14.00
2022-10-21T08:34:06.387Z,14.10
2022-10-21T08:36:33.142Z,14.20
2022-10-21T08:38:59.982Z,14.20
2022-10-21T08:41:29.563Z,14.20
2022-10-21T08:44:00.616Z,14.20
2022-10-21T08:46:45.437Z,14.30
2022-10-21T08:49:30.750Z,14.40
2022-10-21T08:52:03.482Z,14.60
2022-10-21T08:54:43.455Z,14.60
2022-10-21T08:57:11.913Z,14.60
2022-10-21T08:59:42.098Z,14.60
2022-10-21T09:02:35.894Z,14.60
2022-10-21T09:05:33.903Z,14.60
2022-10-21T09:08:13.329Z,14.70
2022-10-21T09:10:51.561Z,14.70
2022-10-21T09:13:22.599Z,15.00
2022-10-21T09:16:07.363Z,15.10
2022-10-21T09:18:51.910Z,15.20
2022-10-21T09:21:43.067Z,15.30
2022-10-21T09:24:19.004Z,15.20
2022-10-21T09:26:50.493Z,15.20
2022-10-21T09:29:32.049Z,15.20
2022-10-21T09:32:23.595Z,15.20
2022-10-21T09:35:08.631Z,15.10
2022-10-21T09:37:42.037Z,15.00
2022-10-21T09:40:28.439Z,15.00
2022-10-21T09:42:59.014Z,15.00
2022-10-21T09:45:39.133Z,15.00
2022-10-21T09:48:18.143Z,15.00
2022-10-21T09:50:52.119Z,14.90
2022-10-21T09:53:26.704Z,14.90
2022-10-21T09:56:01.945Z,15.00
2022-10-21T09:58:37.326Z,15.20
2022-10-21T10:01:06.134Z,15.30
2022-10-21T10:03:37.395Z,15.30
2022-10-21T10:06:05.879Z,15.50
2022-10-21T10:08:35.539Z,15.60
2022-10-21T10:11:05.678Z,15.70
2022-10-21T10:13:32.459Z,15.90
2022-10-21T10:16:24.403Z,16.00
2022-10-21T10:18:53.966Z,16.10
2022-10-21T10:21:22.527Z,16.30
2022-10-21T10:23:52.321Z,16.40
2022-10-21T10:26:21.716Z,16.50
2022-10-21T10:28:51.641Z,16.50
2022-10-21T10:31:31.695Z,16.60
2022-10-21T10:34:03.998Z,16.80
2022-10-21T10:36:39.077Z,16.90
2022-10-21T10:39:16.051Z,16.90
2022-10-21T10:41:48.753Z,16.90
2022-10-21T10:44:24.179Z,17.00
2022-10-21T10:46:55.962Z,17.10
2022-10-21T10:49:24.565Z,17.20
2022-10-21T10:52:09.878Z,17.20
2022-10-21T10:54:38.599Z,17.30
2022-10-21T10:57:13.818Z,17.30
2022-10-21T11:08:55.053Z,17.60
2022-10-21T11:11:26.381Z,17.70
2022-10-21T11:13:54.074Z,17.70
2022-10-21T11:16:59.055Z,17.80
2022-10-21T11:19:51.479Z,18.00
2022-10-21T11:22:38.363Z,18.20
2022-10-21T11:25:28.304Z,18.30
2022-10-21T11:28:13.763Z,18.40
2022-10-21T11:30:57.225Z,18.60
2022-10-21T11:33:42.198Z,18.70
2022-10-21T11:36:27.345Z,18.80
2022-10-21T11:39:21.395Z,18.80
2022-10-21T11:41:57.865Z,18.90
2022-10-21T11:44:53.711Z,18.90
2022-10-21T11:47:58.298Z,18.90
2022-10-21T11:50:39.228Z,18.70
2022-10-21T11:53:26.204Z,18.80
2022-10-21T11:56:13.817Z,18.90
2022-10-21T11:59:12.722Z,19.00
2022-10-21T12:01:59.364Z,19.00
2022-10-21T12:04:35.831Z,18.90
2022-10-21T12:07:14.639Z,18.90
2022-10-21T12:10:11.902Z,18.80
2022-10-21T12:12:43.034Z,18.90
2022-10-21T12:15:46.326Z,18.90
2022-10-21T12:18:19.499Z,18.90
2022-10-21T12:20:50.193Z,19.10
2022-10-21T12:23:20.502Z,19.10
2022-10-21T12:26:13.908Z,19.30
2022-10-21T12:28:49.283Z,19.40
2022-10-21T12:31:31.867Z,19.50
2022-10-21T12:33:58.954Z,19.60
2022-10-21T12:36:45.256Z,19.50
2022-10-21T12:39:33.968Z,19.50
2022-10-21T12:42:16.346Z,19.60
2022-10-21T12:44:51.262Z,19.60
2022-10-21T12:47:31.118Z,19.60
2022-10-21T12:50:19.544Z,19.60
2022-10-21T12:53:02.162Z,19.60
2022-10-21T12:55:30.352Z,19.60
2022-10-21T12:58:02.408Z,19.70
2022-10-21T13:00:29.152Z,19.60
2022-10-21T13:03:04.849Z,19.60
2022-10-21T13:05:37.714Z,19.50
2022-10-21T13:08:22.728Z,19.30
2022-10-21T13:11:07.474Z,19.20
2022-10-21T13:13:40.213Z,19.30
2022-10-21T13:16:16.054Z,19.40
2022-10-21T13:19:26.339Z,19.50
2022-10-21T13:22:11.298Z,19.60
2022-10-21T13:24:39.127Z,19.60
2022-10-21T13:27:24.633Z,19.40
2022-10-21T13:29:52.117Z,19.40
2022-10-21T13:32:24.115Z,19.30
2022-10-21T13:34:50.957Z,19.40
2022-10-21T13:37:38.788Z,19.30
2022-10-21T13:40:16.372Z,19.40
2022-10-21T13:42:48.018Z,19.40
2022-10-21T13:45:37.350Z,19.50
2022-10-21T13:48:06.110Z,19.50
2022-10-21T13:50:38.758Z,19.50
2022-10-21T13:53:15.346Z,19.50
2022-10-21T13:55:42.143Z,19.60
2022-10-21T13:58:18.323Z,19.60
2022-10-21T14:00:45.124Z,19.60
2022-10-21T14:03:19.054Z,19.60
2022-10-21T14:05:58.127Z,19.60
2022-10-21T14:08:39.384Z,19.60
2022-10-21T14:11:21.025Z,19.50
2022-10-21T14:13:50.590Z,19.40
2022-10-21T14:16:39.695Z,19.40
2022-10-21T14:19:19.957Z,19.30
2022-10-21T14:21:50.565Z,19.30
2022-10-21T14:24:26.235Z,19.40
2022-10-21T14:26:53.609Z,19.40
2022-10-21T14:29:23.525Z,19.50
2022-10-21T14:31:50.770Z,19.60
2022-10-21T14:34:25.638Z,19.60
2022-10-21T14:37:09.396Z,19.70
2022-10-21T14:39:39.461Z,19.90
2022-10-21T14:42:16.998Z,19.90
2022-10-21T14:44:45.528Z,19.90
2022-10-21T14:47:21.770Z,19.90
2022-10-21T14:49:50.835Z,19.80
2022-10-21T14:52:43.142Z,19.60
2022-10-21T14:55:15.893Z,19.60
2022-10-21T14:57:52.608Z,19.50
2022-10-21T15:00:30.452Z,19.40
2022-10-21T15:02:58.199Z,19.20
2022-10-21T15:05:48.014Z,19.10
2022-10-21T15:08:22.832Z,19.00
2022-10-21T15:11:00.278Z,18.80
2022-10-21T15:13:27.259Z,18.70
2022-10-21T15:15:56.671Z,18.70
2022-10-21T15:18:31.115Z,18.70
2022-10-21T15:21:10.581Z,18.70
2022-10-21T15:23:39.312Z,18.70
2022-10-21T15:26:18.961Z,18.70
2022-10-21T15:28:46.028Z,18.60
2022-10-21T15:31:24.373Z,18.50
2022-10-21T15:33:53.553Z,18.50
2022-10-21T15:36:20.825Z,18.50
2022-10-21T15:38:48.549Z,18.40
2022-10-21T15:41:23.399Z,18.40
2022-10-21T15:44:01.070Z,18.20
2022-10-21T15:46:30.257Z,18.10
2022-10-21T15:48:58.431Z,18.00
2022-10-21T15:51:25.177Z,17.90
2022-10-21T15:53:51.947Z,17.90
2022-10-21T15:56:19.897Z,17.80
2022-10-21T15:58:46.903Z,17.70
2022-10-21T16:01:16.764Z,17.50
2022-10-21T16:03:44.975Z,17.40
2022-10-21T16:06:16.657Z,17.20
2022-10-21T16:08:43.703Z,17.10
2022-10-21T16:11:25.721Z,17.00
2022-10-21T16:14:01.929Z,16.80
2022-10-21T16:16:28.899Z,16.60
2022-10-21T16:18:55.665Z,16.40
2022-10-21T16:21:23.491Z,16.40
2022-10-21T16:23:50.752Z,16.30
2022-10-21T16:26:23.389Z,16.30
2022-10-21T16:28:51.768Z,16.40
2022-10-21T16:31:19.227Z,16.40
2022-10-21T16:33:46.223Z,16.30
2022-10-21T16:36:18.133Z,16.20
2022-10-21T16:38:46.322Z,16.00
2022-10-21T16:41:18.922Z,15.90
2022-10-21T16:43:46.095Z,15.70
2022-10-21T16:46:32.166Z,15.60
2022-10-21T16:49:00.511Z,15.50
2022-10-21T16:51:29.515Z,15.60
2022-10-21T16:53:56.739Z,15.50
2022-10-21T16:56:23.709Z,15.40
2022-10-21T16:58:52.594Z,15.30
2022-10-21T17:01:22.825Z,15.10
2022-10-21T17:03:50.486Z,15.10
2022-10-21T17:06:22.657Z,15.00
2022-10-21T17:08:51.354Z,15.00
2022-10-21T17:11:38.946Z,15.00
2022-10-21T17:14:09.182Z,14.90
2022-10-21T17:16:35.991Z,14.90
2022-10-21T17:19:03.118Z,14.90
2022-10-21T17:21:32.463Z,14.80
2022-10-21T17:24:01.543Z,14.80
2022-10-21T17:26:30.225Z,14.70
2022-10-21T17:28:57.841Z,14.70
2022-10-21T17:31:27.574Z,14.60
2022-10-21T17:33:57.709Z,14.60
2022-10-21T17:36:24.909Z,14.50
2022-10-21T17:38:51.795Z,14.60
2022-10-21T17:41:21.899Z,14.60
2022-10-21T17:43:48.781Z,14.70
2022-10-21T17:46:20.735Z,14.80
2022-10-21T17:48:51.383Z,14.80
2022-10-21T17:51:18.839Z,14.80
2022-10-21T17:53:49.744Z,14.80
2022-10-21T17:56:17.310Z,14.80
2022-10-21T17:58:44.381Z,14.70
2022-10-21T18:01:13.254Z,14.60
2022-10-21T18:03:40.287Z,14.50
2022-10-21T18:06:09.792Z,14.40
2022-10-21T18:08:37.906Z,14.50
2022-10-21T18:11:13.881Z,14.50
2022-10-21T18:13:41.786Z,14.50
2022-10-21T18:16:15.096Z,14.50
2022-10-21T18:21:29.316Z,14.40
2022-10-21T18:23:56.463Z,14.20
2022-10-21T18:26:26.741Z,14.10
2022-10-21T18:28:57.260Z,14.10
2022-10-21T18:31:26.178Z,14.00
2022-10-21T18:33:54.751Z,13.90
2022-10-21T18:36:21.630Z,13.80
2022-10-21T18:38:48.534Z,13.80
2022-10-21T18:41:20.474Z,13.70
2022-10-21T18:43:53.483Z,13.60
2022-10-21T18:46:21.399Z,13.60
2022-10-21T18:48:48.485Z,13.60
2022-10-21T18:51:20.753Z,13.50
2022-10-21T18:53:51.600Z,13.50
2022-10-21T18:56:20.809Z,13.50
2022-10-21T18:58:47.655Z,13.50
2022-10-21T19:01:15.267Z,13.50
2022-10-21T19:03:42.750Z,13.50
2022-10-21T19:06:33.491Z,13.50
2022-10-21T19:09:03.590Z,13.40
2022-10-21T19:11:30.597Z,13.30
2022-10-21T19:13:57.682Z,13.30
2022-10-21T19:16:24.915Z,13.30
2022-10-21T19:18:52.572Z,13.20
2022-10-21T19:21:20.759Z,13.20
2022-10-21T19:23:47.934Z,13.30
2022-10-21T19:26:17.829Z,13.10
2022-10-21T19:28:47.361Z,13.00
2022-10-21T19:31:15.191Z,12.90
2022-10-21T19:33:42.126Z,12.90
2022-10-21T19:36:11.437Z,12.80
2022-10-21T19:38:44.424Z,12.80
2022-10-21T19:41:15.029Z,12.70
2022-10-21T19:43:41.901Z,12.60
2022-10-21T19:46:09.290Z,12.60
2022-10-21T19:48:36.974Z,12.60
2022-10-21T19:51:04.872Z,12.50
2022-10-21T19:53:33.898Z,12.50
2022-10-21T19:56:05.866Z,12.50
2022-10-21T19:58:33.581Z,12.50
2022-10-21T20:01:02.382Z,12.60
2022-10-21T20:03:29.398Z,12.50
2022-10-21T20:05:56.319Z,12.50
2022-10-21T20:08:23.378Z,12.50
2022-10-21T20:11:01.365Z,12.50
2022-10-21T20:13:28.815Z,12.50
2022-10-21T20:15:55.621Z,12.50
2022-10-21T20:18:24.872Z,12.40
2022-10-21T20:20:55.126Z,12.40
2022-10-21T20:23:23.375Z,12.40
2022-10-21T20:25:55.761Z,12.40
2022-10-21T20:28:23.634Z,12.40
2022-10-21T20:39:31.953Z,12.20
2022-10-21T20:41:58.831Z,12.20
2022-10-21T20:44:25.594Z,12.20
2022-10-21T20:46:52.449Z,12.10
2022-10-21T20:49:19.182Z,12.10
2022-10-21T20:51:46.088Z,12.10
2022-10-21T20:54:16.686Z,12.10
2022-10-21T20:56:44.570Z,12.10
2022-10-21T20:59:15.414Z,12.00
2022-10-21T21:01:45.113Z,12.10
2022-10-21T21:04:14.117Z,12.10
2022-10-21T21:06:48.954Z,12.10
2022-10-21T21:18:11.664Z,12.00
2022-10-21T21:20:38.725Z,12.00
2022-10-21T21:23:05.627Z,12.00
2022-10-21T21:25:34.618Z,12.00
2022-10-21T21:28:01.358Z,12.10
2022-10-21T21:30:28.328Z,12.10
2022-10-21T21:32:55.199Z,12.10
2022-10-21T21:35:24.871Z,12.10
2022-10-21T21:37:51.665Z,12.00
2022-10-21T21:40:21.870Z,12.00
2022-10-21T21:42:48.670Z,12.10
2022-10-21T21:45:15.478Z,12.10
2022-10-21T21:47:42.482Z,12.10
2022-10-21T21:50:09.466Z,12.00
2022-10-21T21:52:37.746Z,12.00
2022-10-21T21:55:05.095Z,12.00
2022-10-21T21:57:31.874Z,12.00
2022-10-21T21:59:58.767Z,12.00
2022-10-21T22:02:25.719Z,12.00
2022-10-21T22:04:52.714Z,12.00
2022-10-21T22:07:19.721Z,12.00
2022-10-21T22:09:46.834Z,12.00
2022-10-21T22:12:14.819Z,12.00
2022-10-21T22:14:42.368Z,12.10
2022-10-21T22:17:09.238Z,12.10
2022-10-21T22:19:36.118Z,12.10
2022-10-21T22:22:03.135Z,12.10
2022-10-21T22:27:19.503Z,12.10
2022-10-21T22:29:46.771Z,12.20
2022-10-21T22:32:13.770Z,12.20
2022-10-21T22:34:40.606Z,12.20
2022-10-21T22:37:07.722Z,12.20
2022-10-21T22:39:34.702Z,12.20
2022-10-21T22:42:01.906Z,12.10
2022-10-21T22:44:28.689Z,12.00
2022-10-21T22:46:55.515Z,12.00
2022-10-21T22:49:22.345Z,12.00
2022-10-21T22:51:49.197Z,11.90
2022-10-21T22:54:35.920Z,12.00
2022-10-21T22:57:03.144Z,11.90
2022-10-21T22:59:30.084Z,11.90
2022-10-21T23:01:57.023Z,11.80
2022-10-21T23:04:23.952Z,11.80
2022-10-21T23:06:51.053Z,11.80
2022-10-21T23:09:18.223Z,11.70
2022-10-21T23:11:46.608Z,11.70
2022-10-21T23:14:14.437Z,11.70
2022-10-21T23:16:41.400Z,11.70
2022-10-21T23:19:08.644Z,11.70
2022-10-21T23:21:36.781Z,11.70
2022-10-21T23:24:04.787Z,11.70
2022-10-21T23:26:31.576Z,11.70
2022-10-21T23:28:58.385Z,11.70
2022-10-21T23:31:25.300Z,11.70
2022-10-21T23:33:52.061Z,11.70
2022-10-21T23:36:19.097Z,11.70
2022-10-21T23:38:45.835Z,11.70
2022-10-21T23:41:12.682Z,11.80
2022-10-21T23:43:39.406Z,11.90
2022-10-21T23:46:06.890Z,11.90
2022-10-21T23:48:33.663Z,12.00
2022-10-21T23:51:00.420Z,12.10
2022-10-21T23:53:27.154Z,12.10
2022-10-21T23:55:53.875Z,12.10
2022-10-21T23:58:20.676Z,12.00
